sensor_id;sensor_type;location;lat;lon;timestamp;P1;durP1;ratioP1;P2;durP2;ratioP2
58784;SDS011;44557;51.862;19.378;2022-10-04T00:03:26;8.20;;;3.60;;
58784;SDS011;44557;51.862;19.378;2022-10-04T00:05:39;10.50;;;4.10;;
58784;SDS011;44557;51.862;19.378;2022-10-04T00:06:46;11.10;;;4.30;;
58784;SDS011;44557;51.862;19.378;2022-10-04T00:07:56;9.30;;;3.80;;
58784;SDS011;44557;51.862;19.378;2022-10-04T00:09:04;8.00;;;3.80;;
58784;SDS011;44557;51.862;19.378;2022-10-04T00:10:16;11.10;;;3.80;;
58784;SDS011;44557;51.862;19.378;2022-10-04T00:11:26;10.70;;;3.90;;
58784;SDS011;44557;51.862;19.378;2022-10-04T00:12:36;12.50;;;4.50;;
58784;SDS011;44557;51.862;19.378;2022-10-04T00:13:46;11.30;;;4.60;;
58784;SDS011;44557;51.862;19.378;2022-10-04T00:15:03;9.50;;;3.70;;
58784;SDS011;44557;51.862;19.378;2022-10-04T00:16:07;12.10;;;3.70;;
58784;SDS011;44557;51.862;19.378;2022-10-04T00:17:41;13.50;;;4.00;;
58784;SDS011;44557;51.862;19.378;2022-10-04T00:18:43;10.90;;;3.80;;
58784;SDS011;44557;51.862;19.378;2022-10-04T00:19:46;9.70;;;4.00;;
58784;SDS011;44557;51.862;19.378;2022-10-04T00:24:26;10.10;;;3.70;;
58784;SDS011;44557;51.862;19.378;2022-10-04T00:25:33;11.90;;;4.10;;
58784;SDS011;44557;51.862;19.378;2022-10-04T00:27:39;11.40;;;4.00;;
58784;SDS011;44557;51.862;19.378;2022-10-04T00:29:22;8.80;;;3.40;;
58784;SDS011;44557;51.862;19.378;2022-10-04T00:30:34;10.20;;;4.00;;
58784;SDS011;44557;51.862;19.378;2022-10-04T00:32:02;12.00;;;4.00;;
58784;SDS011;44557;51.862;19.378;2022-10-04T00:33:37;11.60;;;4.10;;
58784;SDS011;44557;51.862;19.378;2022-10-04T00:35:48;11.50;;;4.20;;
58784;SDS011;44557;51.862;19.378;2022-10-04T00:36:51;13.00;;;4.10;;
58784;SDS011;44557;51.862;19.378;2022-10-04T00:40:11;9.00;;;3.90;;
58784;SDS011;44557;51.862;19.378;2022-10-04T00:41:19;13.60;;;4.80;;
58784;SDS011;44557;51.862;19.378;2022-10-04T00:43:43;14.70;;;4.40;;
58784;SDS011;44557;51.862;19.378;2022-10-04T00:46:13;12.90;;;4.80;;
58784;SDS011;44557;51.862;19.378;2022-10-04T00:48:36;11.10;;;4.30;;
58784;SDS011;44557;51.862;19.378;2022-10-04T00:49:47;10.50;;;4.30;;
58784;SDS011;44557;51.862;19.378;2022-10-04T00:50:57;11.50;;;4.30;;
58784;SDS011;44557;51.862;19.378;2022-10-04T00:52:18;13.80;;;5.00;;
58784;SDS011;44557;51.862;19.378;2022-10-04T00:54:40;13.20;;;5.10;;
58784;SDS011;44557;51.862;19.378;2022-10-04T00:55:51;11.70;;;4.10;;
58784;SDS011;44557;51.862;19.378;2022-10-04T00:58:11;16.90;;;4.50;;
58784;SDS011;44557;51.862;19.378;2022-10-04T00:59:26;12.00;;;4.50;;
58784;SDS011;44557;51.862;19.378;2022-10-04T01:00:30;17.50;;;5.00;;
58784;SDS011;44557;51.862;19.378;2022-10-04T01:01:35;13.10;;;4.80;;
58784;SDS011;44557;51.862;19.378;2022-10-04T01:04:12;12.60;;;4.40;;
58784;SDS011;44557;51.862;19.378;2022-10-04T01:05:46;15.70;;;5.10;;
58784;SDS011;44557;51.862;19.378;2022-10-04T01:06:56;13.10;;;4.70;;
58784;SDS011;44557;51.862;19.378;2022-10-04T01:08:13;14.20;;;5.30;;
58784;SDS011;44557;51.862;19.378;2022-10-04T01:09:19;11.20;;;4.30;;
58784;SDS011;44557;51.862;19.378;2022-10-04T01:10:29;13.40;;;4.80;;
58784;SDS011;44557;51.862;19.378;2022-10-04T01:11:34;12.40;;;4.30;;
58784;SDS011;44557;51.862;19.378;2022-10-04T01:13:58;12.00;;;4.40;;
58784;SDS011;44557;51.862;19.378;2022-10-04T01:15:17;14.80;;;4.30;;
58784;SDS011;44557;51.862;19.378;2022-10-04T01:16:28;11.90;;;4.20;;
58784;SDS011;44557;51.862;19.378;2022-10-04T01:17:36;12.20;;;4.40;;
58784;SDS011;44557;51.862;19.378;2022-10-04T01:18:38;10.60;;;4.00;;
58784;SDS011;44557;51.862;19.378;2022-10-04T01:19:48;11.40;;;4.60;;
58784;SDS011;44557;51.862;19.378;2022-10-04T01:20:53;11.00;;;4.30;;
58784;SDS011;44557;51.862;19.378;2022-10-04T01:23:07;13.30;;;4.50;;
58784;SDS011;44557;51.862;19.378;2022-10-04T01:24:16;14.00;;;4.30;;
58784;SDS011;44557;51.862;19.378;2022-10-04T01:26:52;13.70;;;4.70;;
58784;SDS011;44557;51.862;19.378;2022-10-04T01:27:54;8.90;;;4.30;;
58784;SDS011;44557;51.862;19.378;2022-10-04T01:28:57;13.60;;;4.50;;
58784;SDS011;44557;51.862;19.378;2022-10-04T01:30:16;12.80;;;4.30;;
58784;SDS011;44557;51.862;19.378;2022-10-04T01:31:18;11.70;;;4.10;;
58784;SDS011;44557;51.862;19.378;2022-10-04T01:32:19;9.60;;;4.40;;
58784;SDS011;44557;51.862;19.378;2022-10-04T01:33:21;13.60;;;4.40;;
58784;SDS011;44557;51.862;19.378;2022-10-04T01:34:24;12.50;;;4.90;;
58784;SDS011;44557;51.862;19.378;2022-10-04T01:35:28;11.30;;;4.10;;
58784;SDS011;44557;51.862;19.378;2022-10-04T01:36:29;10.40;;;4.40;;
58784;SDS011;44557;51.862;19.378;2022-10-04T01:37:33;13.00;;;4.90;;
58784;SDS011;44557;51.862;19.378;2022-10-04T01:38:35;12.00;;;4.90;;
58784;SDS011;44557;51.862;19.378;2022-10-04T01:39:36;10.10;;;4.50;;
58784;SDS011;44557;51.862;19.378;2022-10-04T01:40:44;13.50;;;5.30;;
58784;SDS011;44557;51.862;19.378;2022-10-04T01:43:06;16.90;;;4.30;;
58784;SDS011;44557;51.862;19.378;2022-10-04T01:44:57;12.30;;;4.70;;
58784;SDS011;44557;51.862;19.378;2022-10-04T01:46:00;11.40;;;4.70;;
58784;SDS011;44557;51.862;19.378;2022-10-04T01:47:08;15.20;;;5.30;;
58784;SDS011;44557;51.862;19.378;2022-10-04T01:48:16;12.70;;;4.40;;
58784;SDS011;44557;51.862;19.378;2022-10-04T01:49:23;14.00;;;5.10;;
58784;SDS011;44557;51.862;19.378;2022-10-04T01:50:31;11.90;;;4.30;;
58784;SDS011;44557;51.862;19.378;2022-10-04T01:51:35;13.30;;;4.40;;
58784;SDS011;44557;51.862;19.378;2022-10-04T01:53:09;13.30;;;4.60;;
58784;SDS011;44557;51.862;19.378;2022-10-04T01:54:18;10.10;;;4.70;;
58784;SDS011;44557;51.862;19.378;2022-10-04T01:55:27;15.30;;;4.80;;
58784;SDS011;44557;51.862;19.378;2022-10-04T01:56:39;12.30;;;4.10;;
58784;SDS011;44557;51.862;19.378;2022-10-04T01:57:56;13.80;;;4.60;;
58784;SDS011;44557;51.862;19.378;2022-10-04T01:59:04;13.30;;;4.90;;
58784;SDS011;44557;51.862;19.378;2022-10-04T02:00:08;15.20;;;4.10;;
58784;SDS011;44557;51.862;19.378;2022-10-04T02:01:14;15.30;;;4.40;;
58784;SDS011;44557;51.862;19.378;2022-10-04T02:02:23;13.10;;;4.40;;
58784;SDS011;44557;51.862;19.378;2022-10-04T02:03:40;13.50;;;4.80;;
58784;SDS011;44557;51.862;19.378;2022-10-04T02:04:48;13.80;;;4.60;;
58784;SDS011;44557;51.862;19.378;2022-10-04T02:05:55;13.40;;;4.10;;
58784;SDS011;44557;51.862;19.378;2022-10-04T02:07:00;12.90;;;4.30;;
58784;SDS011;44557;51.862;19.378;2022-10-04T02:08:04;12.80;;;4.50;;
58784;SDS011;44557;51.862;19.378;2022-10-04T02:09:10;15.90;;;4.00;;
58784;SDS011;44557;51.862;19.378;2022-10-04T02:10:16;13.50;;;4.60;;
58784;SDS011;44557;51.862;19.378;2022-10-04T02:11:20;12.60;;;4.10;;
58784;SDS011;44557;51.862;19.378;2022-10-04T02:12:22;14.70;;;4.30;;
58784;SDS011;44557;51.862;19.378;2022-10-04T02:13:24;15.80;;;4.70;;
58784;SDS011;44557;51.862;19.378;2022-10-04T02:14:33;18.00;;;4.70;;
58784;SDS011;44557;51.862;19.378;2022-10-04T02:15:36;16.80;;;4.70;;
58784;SDS011;44557;51.862;19.378;2022-10-04T02:16:42;13.40;;;4.50;;
58784;SDS011;44557;51.862;19.378;2022-10-04T02:17:45;12.40;;;4.90;;
58784;SDS011;44557;51.862;19.378;2022-10-04T02:18:49;11.00;;;4.00;;
58784;SDS011;44557;51.862;19.378;2022-10-04T02:19:52;16.80;;;4.60;;
58784;SDS011;44557;51.862;19.378;2022-10-04T02:20:55;11.30;;;4.20;;
58784;SDS011;44557;51.862;19.378;2022-10-04T02:21:56;13.90;;;4.90;;
58784;SDS011;44557;51.862;19.378;2022-10-04T02:22:59;12.00;;;4.20;;
58784;SDS011;44557;51.862;19.378;2022-10-04T02:24:04;10.90;;;4.80;;
58784;SDS011;44557;51.862;19.378;2022-10-04T02:25:09;12.40;;;4.60;;
58784;SDS011;44557;51.862;19.378;2022-10-04T02:26:11;13.80;;;4.70;;
58784;SDS011;44557;51.862;19.378;2022-10-04T02:27:13;12.30;;;4.80;;
58784;SDS011;44557;51.862;19.378;2022-10-04T02:28:15;13.70;;;3.90;;
58784;SDS011;44557;51.862;19.378;2022-10-04T02:29:19;13.30;;;4.30;;
58784;SDS011;44557;51.862;19.378;2022-10-04T02:30:21;10.70;;;3.90;;
58784;SDS011;44557;51.862;19.378;2022-10-04T02:31:24;11.10;;;4.50;;
58784;SDS011;44557;51.862;19.378;2022-10-04T02:32:46;10.40;;;4.00;;
58784;SDS011;44557;51.862;19.378;2022-10-04T02:33:57;14.00;;;4.80;;
58784;SDS011;44557;51.862;19.378;2022-10-04T02:35:00;13.90;;;4.60;;
58784;SDS011;44557;51.862;19.378;2022-10-04T02:36:04;13.50;;;4.30;;
58784;SDS011;44557;51.862;19.378;2022-10-04T02:37:08;11.10;;;4.00;;
58784;SDS011;44557;51.862;19.378;2022-10-04T02:38:22;17.40;;;4.70;;
58784;SDS011;44557;51.862;19.378;2022-10-04T02:39:36;15.70;;;4.60;;
58784;SDS011;44557;51.862;19.378;2022-10-04T02:42:18;11.40;;;4.30;;
58784;SDS011;44557;51.862;19.378;2022-10-04T02:43:33;13.30;;;4.50;;
58784;SDS011;44557;51.862;19.378;2022-10-04T02:44:42;11.90;;;3.80;;
58784;SDS011;44557;51.862;19.378;2022-10-04T02:46:58;15.00;;;4.50;;
58784;SDS011;44557;51.862;19.378;2022-10-04T02:48:43;11.00;;;3.80;;
58784;SDS011;44557;51.862;19.378;2022-10-04T02:49:48;13.50;;;4.60;;
58784;SDS011;44557;51.862;19.378;2022-10-04T02:50:55;14.80;;;4.10;;
58784;SDS011;44557;51.862;19.378;2022-10-04T02:52:25;12.00;;;4.10;;
58784;SDS011;44557;51.862;19.378;2022-10-04T02:53:45;10.10;;;3.90;;
58784;SDS011;44557;51.862;19.378;2022-10-04T02:54:56;9.50;;;3.70;;
58784;SDS011;44557;51.862;19.378;2022-10-04T02:56:02;12.20;;;3.90;;
58784;SDS011;44557;51.862;19.378;2022-10-04T02:57:10;9.40;;;3.80;;
58784;SDS011;44557;51.862;19.378;2022-10-04T02:58:16;11.20;;;3.90;;
58784;SDS011;44557;51.862;19.378;2022-10-04T02:59:23;13.40;;;4.50;;
58784;SDS011;44557;51.862;19.378;2022-10-04T03:00:28;11.60;;;4.20;;
58784;SDS011;44557;51.862;19.378;2022-10-04T03:01:44;11.00;;;3.80;;
58784;SDS011;44557;51.862;19.378;2022-10-04T03:04:26;10.20;;;3.90;;
58784;SDS011;44557;51.862;19.378;2022-10-04T03:05:31;9.60;;;3.60;;
58784;SDS011;44557;51.862;19.378;2022-10-04T03:06:33;13.10;;;3.50;;
58784;SDS011;44557;51.862;19.378;2022-10-04T03:07:35;16.70;;;3.60;;
58784;SDS011;44557;51.862;19.378;2022-10-04T03:08:52;14.30;;;4.50;;
58784;SDS011;44557;51.862;19.378;2022-10-04T03:09:59;12.90;;;4.10;;
58784;SDS011;44557;51.862;19.378;2022-10-04T03:11:03;11.10;;;4.00;;
58784;SDS011;44557;51.862;19.378;2022-10-04T03:12:06;10.60;;;3.60;;
58784;SDS011;44557;51.862;19.378;2022-10-04T03:13:11;10.90;;;3.50;;
58784;SDS011;44557;51.862;19.378;2022-10-04T03:14:21;11.00;;;3.20;;
58784;SDS011;44557;51.862;19.378;2022-10-04T03:15:28;10.60;;;3.60;;
58784;SDS011;44557;51.862;19.378;2022-10-04T03:16:37;11.10;;;3.10;;
58784;SDS011;44557;51.862;19.378;2022-10-04T03:17:42;13.10;;;3.70;;
58784;SDS011;44557;51.862;19.378;2022-10-04T03:18:44;12.30;;;4.00;;
58784;SDS011;44557;51.862;19.378;2022-10-04T03:19:48;9.80;;;3.00;;
58784;SDS011;44557;51.862;19.378;2022-10-04T03:20:50;10.40;;;3.70;;
58784;SDS011;44557;51.862;19.378;2022-10-04T03:21:56;10.90;;;3.40;;
58784;SDS011;44557;51.862;19.378;2022-10-04T03:23:02;12.80;;;4.20;;
58784;SDS011;44557;51.862;19.378;2022-10-04T03:24:05;8.90;;;3.70;;
58784;SDS011;44557;51.862;19.378;2022-10-04T03:25:11;9.60;;;3.10;;
58784;SDS011;44557;51.862;19.378;2022-10-04T03:26:20;7.90;;;3.10;;
58784;SDS011;44557;51.862;19.378;2022-10-04T03:27:44;10.40;;;3.40;;
58784;SDS011;44557;51.862;19.378;2022-10-04T03:28:47;8.90;;;3.10;;
58784;SDS011;44557;51.862;19.378;2022-10-04T03:29:49;9.40;;;3.10;;
58784;SDS011;44557;51.862;19.378;2022-10-04T03:30:51;11.20;;;3.60;;
58784;SDS011;44557;51.862;19.378;2022-10-04T03:31:53;9.10;;;3.10;;
58784;SDS011;44557;51.862;19.378;2022-10-04T03:32:59;9.20;;;3.10;;
58784;SDS011;44557;51.862;19.378;2022-10-04T03:34:01;13.00;;;3.40;;
58784;SDS011;44557;51.862;19.378;2022-10-04T03:35:03;8.40;;;3.40;;
58784;SDS011;44557;51.862;19.378;2022-10-04T03:36:09;8.10;;;2.80;;
58784;SDS011;44557;51.862;19.378;2022-10-04T03:37:15;12.90;;;3.90;;
58784;SDS011;44557;51.862;19.378;2022-10-04T03:38:20;10.70;;;3.50;;
58784;SDS011;44557;51.862;19.378;2022-10-04T03:40:31;8.60;;;3.00;;
58784;SDS011;44557;51.862;19.378;2022-10-04T03:41:33;10.60;;;3.00;;
58784;SDS011;44557;51.862;19.378;2022-10-04T03:42:40;9.60;;;3.50;;
58784;SDS011;44557;51.862;19.378;2022-10-04T03:43:43;12.30;;;3.60;;
58784;SDS011;44557;51.862;19.378;2022-10-04T03:44:47;13.80;;;3.30;;
58784;SDS011;44557;51.862;19.378;2022-10-04T03:45:51;11.70;;;3.60;;
58784;SDS011;44557;51.862;19.378;2022-10-04T03:46:55;11.70;;;3.40;;
58784;SDS011;44557;51.862;19.378;2022-10-04T03:47:57;9.30;;;3.40;;
58784;SDS011;44557;51.862;19.378;2022-10-04T03:49:05;14.30;;;3.70;;
58784;SDS011;44557;51.862;19.378;2022-10-04T03:50:19;15.30;;;4.20;;
58784;SDS011;44557;51.862;19.378;2022-10-04T03:51:25;10.90;;;3.50;;
58784;SDS011;44557;51.862;19.378;2022-10-04T03:52:30;12.90;;;4.10;;
58784;SDS011;44557;51.862;19.378;2022-10-04T03:53:38;11.70;;;3.90;;
58784;SDS011;44557;51.862;19.378;2022-10-04T03:54:45;11.50;;;3.60;;
58784;SDS011;44557;51.862;19.378;2022-10-04T03:55:48;10.80;;;3.90;;
58784;SDS011;44557;51.862;19.378;2022-10-04T03:56:50;9.00;;;3.70;;
58784;SDS011;44557;51.862;19.378;2022-10-04T03:57:55;10.90;;;3.50;;
58784;SDS011;44557;51.862;19.378;2022-10-04T03:58:57;12.50;;;3.70;;
58784;SDS011;44557;51.862;19.378;2022-10-04T03:59:59;13.70;;;4.10;;
58784;SDS011;44557;51.862;19.378;2022-10-04T04:02:14;12.80;;;4.00;;
58784;SDS011;44557;51.862;19.378;2022-10-04T04:03:27;15.00;;;4.50;;
58784;SDS011;44557;51.862;19.378;2022-10-04T04:06:04;11.90;;;4.20;;
58784;SDS011;44557;51.862;19.378;2022-10-04T04:07:24;13.20;;;4.50;;
58784;SDS011;44557;51.862;19.378;2022-10-04T04:08:40;11.60;;;3.80;;
58784;SDS011;44557;51.862;19.378;2022-10-04T04:09:46;11.80;;;4.10;;
58784;SDS011;44557;51.862;19.378;2022-10-04T04:11:00;12.50;;;5.30;;
58784;SDS011;44557;51.862;19.378;2022-10-04T04:12:05;12.40;;;4.50;;
58784;SDS011;44557;51.862;19.378;2022-10-04T04:14:25;10.20;;;4.20;;
58784;SDS011;44557;51.862;19.378;2022-10-04T04:15:28;10.10;;;4.20;;
58784;SDS011;44557;51.862;19.378;2022-10-04T04:16:33;13.40;;;3.90;;
58784;SDS011;44557;51.862;19.378;2022-10-04T04:17:41;11.60;;;4.40;;
58784;SDS011;44557;51.862;19.378;2022-10-04T04:18:45;10.90;;;4.10;;
58784;SDS011;44557;51.862;19.378;2022-10-04T04:19:50;14.90;;;4.10;;
58784;SDS011;44557;51.862;19.378;2022-10-04T04:20:54;11.40;;;4.10;;
58784;SDS011;44557;51.862;19.378;2022-10-04T04:21:59;12.20;;;4.00;;
58784;SDS011;44557;51.862;19.378;2022-10-04T04:23:11;8.90;;;3.90;;
58784;SDS011;44557;51.862;19.378;2022-10-04T04:24:26;12.60;;;4.20;;
58784;SDS011;44557;51.862;19.378;2022-10-04T04:25:38;10.10;;;3.90;;
58784;SDS011;44557;51.862;19.378;2022-10-04T04:26:44;10.00;;;4.00;;
58784;SDS011;44557;51.862;19.378;2022-10-04T04:27:48;11.80;;;4.20;;
58784;SDS011;44557;51.862;19.378;2022-10-04T04:28:54;9.70;;;3.70;;
58784;SDS011;44557;51.862;19.378;2022-10-04T04:30:05;12.10;;;4.00;;
58784;SDS011;44557;51.862;19.378;2022-10-04T04:31:12;10.10;;;4.10;;
58784;SDS011;44557;51.862;19.378;2022-10-04T04:32:33;11.50;;;4.90;;
58784;SDS011;44557;51.862;19.378;2022-10-04T04:33:44;15.50;;;5.50;;
58784;SDS011;44557;51.862;19.378;2022-10-04T04:34:57;11.10;;;4.70;;
58784;SDS011;44557;51.862;19.378;2022-10-04T04:36:10;12.60;;;4.60;;
58784;SDS011;44557;51.862;19.378;2022-10-04T04:37:13;10.30;;;4.70;;
58784;SDS011;44557;51.862;19.378;2022-10-04T04:38:24;9.70;;;3.80;;
58784;SDS011;44557;51.862;19.378;2022-10-04T04:39:27;15.00;;;4.80;;
58784;SDS011;44557;51.862;19.378;2022-10-04T04:40:45;14.60;;;4.90;;
58784;SDS011;44557;51.862;19.378;2022-10-04T04:41:47;12.70;;;4.80;;
58784;SDS011;44557;51.862;19.378;2022-10-04T04:42:48;13.40;;;4.90;;
58784;SDS011;44557;51.862;19.378;2022-10-04T04:43:51;13.70;;;4.20;;
58784;SDS011;44557;51.862;19.378;2022-10-04T04:44:54;13.70;;;4.50;;
58784;SDS011;44557;51.862;19.378;2022-10-04T04:46:00;10.30;;;4.70;;
58784;SDS011;44557;51.862;19.378;2022-10-04T04:47:06;12.90;;;4.90;;
58784;SDS011;44557;51.862;19.378;2022-10-04T04:48:17;8.90;;;4.60;;
58784;SDS011;44557;51.862;19.378;2022-10-04T04:49:21;12.20;;;5.00;;
58784;SDS011;44557;51.862;19.378;2022-10-04T04:50:25;12.80;;;4.50;;
58784;SDS011;44557;51.862;19.378;2022-10-04T04:51:33;9.60;;;4.60;;
58784;SDS011;44557;51.862;19.378;2022-10-04T04:52:34;11.50;;;5.00;;
58784;SDS011;44557;51.862;19.378;2022-10-04T04:53:37;8.80;;;4.10;;
58784;SDS011;44557;51.862;19.378;2022-10-04T04:54:43;12.70;;;4.70;;
58784;SDS011;44557;51.862;19.378;2022-10-04T04:55:48;13.40;;;5.20;;
58784;SDS011;44557;51.862;19.378;2022-10-04T04:56:55;8.70;;;4.40;;
58784;SDS011;44557;51.862;19.378;2022-10-04T04:57:57;13.50;;;4.60;;
58784;SDS011;44557;51.862;19.378;2022-10-04T04:59:00;13.50;;;5.00;;
58784;SDS011;44557;51.862;19.378;2022-10-04T05:00:04;14.20;;;4.80;;
58784;SDS011;44557;51.862;19.378;2022-10-04T05:01:26;9.70;;;4.30;;
58784;SDS011;44557;51.862;19.378;2022-10-04T05:02:35;12.40;;;4.50;;
58784;SDS011;44557;51.862;19.378;2022-10-04T05:03:37;13.40;;;5.10;;
58784;SDS011;44557;51.862;19.378;2022-10-04T05:04:39;12.10;;;5.20;;
58784;SDS011;44557;51.862;19.378;2022-10-04T05:05:43;11.90;;;5.20;;
58784;SDS011;44557;51.862;19.378;2022-10-04T05:07:33;17.20;;;5.50;;
58784;SDS011;44557;51.862;19.378;2022-10-04T05:08:30;12.00;;;5.00;;
58784;SDS011;44557;51.862;19.378;2022-10-04T05:09:36;14.70;;;5.20;;
58784;SDS011;44557;51.862;19.378;2022-10-04T05:13:07;13.80;;;5.70;;
58784;SDS011;44557;51.862;19.378;2022-10-04T05:14:11;13.10;;;5.20;;
58784;SDS011;44557;51.862;19.378;2022-10-04T05:15:16;12.60;;;5.10;;
58784;SDS011;44557;51.862;19.378;2022-10-04T05:16:19;16.00;;;5.40;;
58784;SDS011;44557;51.862;19.378;2022-10-04T05:17:30;12.60;;;4.90;;
58784;SDS011;44557;51.862;19.378;2022-10-04T05:18:35;10.70;;;5.50;;
58784;SDS011;44557;51.862;19.378;2022-10-04T05:19:38;15.20;;;5.60;;
58784;SDS011;44557;51.862;19.378;2022-10-04T05:20:42;14.30;;;5.00;;
58784;SDS011;44557;51.862;19.378;2022-10-04T05:21:49;9.40;;;5.10;;
58784;SDS011;44557;51.862;19.378;2022-10-04T05:22:53;13.40;;;5.70;;
58784;SDS011;44557;51.862;19.378;2022-10-04T05:23:55;14.30;;;5.80;;
58784;SDS011;44557;51.862;19.378;2022-10-04T05:25:00;12.00;;;5.30;;
58784;SDS011;44557;51.862;19.378;2022-10-04T05:26:10;10.10;;;5.00;;
58784;SDS011;44557;51.862;19.378;2022-10-04T05:27:15;12.80;;;6.20;;
58784;SDS011;44557;51.862;19.378;2022-10-04T05:28:23;12.90;;;5.30;;
58784;SDS011;44557;51.862;19.378;2022-10-04T05:29:26;16.70;;;6.10;;
58784;SDS011;44557;51.862;19.378;2022-10-04T05:31:52;12.30;;;5.50;;
58784;SDS011;44557;51.862;19.378;2022-10-04T05:33:08;10.50;;;5.80;;
58784;SDS011;44557;51.862;19.378;2022-10-04T05:34:21;12.80;;;5.60;;
58784;SDS011;44557;51.862;19.378;2022-10-04T05:35:24;14.90;;;5.60;;
58784;SDS011;44557;51.862;19.378;2022-10-04T05:39:38;13.10;;;6.00;;
58784;SDS011;44557;51.862;19.378;2022-10-04T05:43:23;11.10;;;5.40;;
58784;SDS011;44557;51.862;19.378;2022-10-04T05:44:43;12.40;;;6.00;;
58784;SDS011;44557;51.862;19.378;2022-10-04T05:46:05;11.50;;;5.60;;
58784;SDS011;44557;51.862;19.378;2022-10-04T05:47:10;11.00;;;6.00;;
58784;SDS011;44557;51.862;19.378;2022-10-04T05:48:14;14.30;;;5.80;;
58784;SDS011;44557;51.862;19.378;2022-10-04T05:49:16;12.50;;;5.70;;
58784;SDS011;44557;51.862;19.378;2022-10-04T05:50:36;14.10;;;5.80;;
58784;SDS011;44557;51.862;19.378;2022-10-04T05:52:16;12.40;;;5.70;;
58784;SDS011;44557;51.862;19.378;2022-10-04T05:53:31;14.70;;;5.70;;
58784;SDS011;44557;51.862;19.378;2022-10-04T05:54:33;8.90;;;5.10;;
58784;SDS011;44557;51.862;19.378;2022-10-04T05:55:40;10.80;;;5.20;;
58784;SDS011;44557;51.862;19.378;2022-10-04T05:59:44;10.00;;;5.60;;
58784;SDS011;44557;51.862;19.378;2022-10-04T06:01:19;13.50;;;5.60;;
58784;SDS011;44557;51.862;19.378;2022-10-04T06:03:52;12.60;;;5.80;;
58784;SDS011;44557;51.862;19.378;2022-10-04T06:05:22;14.30;;;5.40;;
58784;SDS011;44557;51.862;19.378;2022-10-04T06:11:52;11.90;;;5.50;;
58784;SDS011;44557;51.862;19.378;2022-10-04T06:22:43;9.60;;;4.90;;
58784;SDS011;44557;51.862;19.378;2022-10-04T06:23:50;10.80;;;5.00;;
58784;SDS011;44557;51.862;19.378;2022-10-04T06:24:57;12.40;;;4.80;;
58784;SDS011;44557;51.862;19.378;2022-10-04T06:26:11;10.90;;;4.90;;
58784;SDS011;44557;51.862;19.378;2022-10-04T06:27:20;13.70;;;5.90;;
58784;SDS011;44557;51.862;19.378;2022-10-04T06:28:42;11.50;;;4.90;;
58784;SDS011;44557;51.862;19.378;2022-10-04T06:29:51;12.40;;;5.10;;
58784;SDS011;44557;51.862;19.378;2022-10-04T06:32:35;13.60;;;5.80;;
58784;SDS011;44557;51.862;19.378;2022-10-04T06:37:27;11.90;;;5.20;;
58784;SDS011;44557;51.862;19.378;2022-10-04T06:38:39;13.30;;;5.30;;
58784;SDS011;44557;51.862;19.378;2022-10-04T06:50:14;12.60;;;5.00;;
58784;SDS011;44557;51.862;19.378;2022-10-04T07:00:29;9.80;;;4.40;;
58784;SDS011;44557;51.862;19.378;2022-10-04T07:01:35;8.40;;;4.50;;
58784;SDS011;44557;51.862;19.378;2022-10-04T07:04:23;10.80;;;5.10;;
58784;SDS011;44557;51.862;19.378;2022-10-04T07:05:33;9.80;;;4.90;;
58784;SDS011;44557;51.862;19.378;2022-10-04T07:07:06;10.60;;;4.70;;
58784;SDS011;44557;51.862;19.378;2022-10-04T07:09:00;9.10;;;4.10;;
58784;SDS011;44557;51.862;19.378;2022-10-04T07:11:43;10.20;;;5.00;;
58784;SDS011;44557;51.862;19.378;2022-10-04T07:14:32;10.10;;;5.00;;
58784;SDS011;44557;51.862;19.378;2022-10-04T07:15:42;10.70;;;4.90;;
58784;SDS011;44557;51.862;19.378;2022-10-04T07:17:23;11.50;;;5.30;;
58784;SDS011;44557;51.862;19.378;2022-10-04T07:20:05;9.60;;;4.70;;
58784;SDS011;44557;51.862;19.378;2022-10-04T07:21:26;10.30;;;5.00;;
58784;SDS011;44557;51.862;19.378;2022-10-04T07:22:40;10.60;;;4.50;;
58784;SDS011;44557;51.862;19.378;2022-10-04T07:23:49;9.50;;;4.40;;
58784;SDS011;44557;51.862;19.378;2022-10-04T07:26:55;11.00;;;4.60;;
58784;SDS011;44557;51.862;19.378;2022-10-04T07:29:31;9.00;;;4.10;;
58784;SDS011;44557;51.862;19.378;2022-10-04T07:33:26;10.30;;;4.30;;
58784;SDS011;44557;51.862;19.378;2022-10-04T07:36:11;11.90;;;4.00;;
58784;SDS011;44557;51.862;19.378;2022-10-04T07:39:24;9.00;;;4.20;;
58784;SDS011;44557;51.862;19.378;2022-10-04T07:40:33;10.20;;;4.70;;
58784;SDS011;44557;51.862;19.378;2022-10-04T07:41:56;11.90;;;4.50;;
58784;SDS011;44557;51.862;19.378;2022-10-04T07:43:09;12.10;;;4.50;;
58784;SDS011;44557;51.862;19.378;2022-10-04T07:44:25;9.40;;;4.30;;
58784;SDS011;44557;51.862;19.378;2022-10-04T07:46:10;8.00;;;4.20;;
58784;SDS011;44557;51.862;19.378;2022-10-04T07:47:28;9.60;;;4.50;;
58784;SDS011;44557;51.862;19.378;2022-10-04T07:48:40;11.50;;;4.60;;
58784;SDS011;44557;51.862;19.378;2022-10-04T07:49:59;9.30;;;4.30;;
58784;SDS011;44557;51.862;19.378;2022-10-04T07:55:22;7.80;;;4.20;;
58784;SDS011;44557;51.862;19.378;2022-10-04T07:56:40;9.40;;;4.00;;
58784;SDS011;44557;51.862;19.378;2022-10-04T08:00:38;9.90;;;4.70;;
58784;SDS011;44557;51.862;19.378;2022-10-04T08:01:56;10.40;;;5.10;;
58784;SDS011;44557;51.862;19.378;2022-10-04T08:04:14;12.00;;;4.80;;
58784;SDS011;44557;51.862;19.378;2022-10-04T08:05:20;9.70;;;4.50;;
58784;SDS011;44557;51.862;19.378;2022-10-04T08:08:19;9.10;;;4.40;;
58784;SDS011;44557;51.862;19.378;2022-10-04T08:09:40;9.60;;;4.90;;
58784;SDS011;44557;51.862;19.378;2022-10-04T08:14:45;8.80;;;4.50;;
58784;SDS011;44557;51.862;19.378;2022-10-04T08:15:53;10.80;;;5.00;;
58784;SDS011;44557;51.862;19.378;2022-10-04T08:17:12;6.90;;;4.30;;
58784;SDS011;44557;51.862;19.378;2022-10-04T08:20:45;10.70;;;4.70;;
58784;SDS011;44557;51.862;19.378;2022-10-04T08:26:33;11.30;;;5.20;;
58784;SDS011;44557;51.862;19.378;2022-10-04T08:29:15;9.90;;;4.40;;
58784;SDS011;44557;51.862;19.378;2022-10-04T08:30:45;9.80;;;4.70;;
58784;SDS011;44557;51.862;19.378;2022-10-04T08:35:12;9.70;;;5.10;;
58784;SDS011;44557;51.862;19.378;2022-10-04T08:47:56;10.80;;;5.00;;
58784;SDS011;44557;51.862;19.378;2022-10-04T08:56:55;8.10;;;3.70;;
58784;SDS011;44557;51.862;19.378;2022-10-04T09:06:42;9.10;;;4.50;;
58784;SDS011;44557;51.862;19.378;2022-10-04T09:16:28;10.70;;;5.40;;
58784;SDS011;44557;51.862;19.378;2022-10-04T09:20:30;10.60;;;5.70;;
58784;SDS011;44557;51.862;19.378;2022-10-04T09:24:55;8.90;;;6.10;;
58784;SDS011;44557;51.862;19.378;2022-10-04T09:26:27;10.40;;;5.50;;
58784;SDS011;44557;51.862;19.378;2022-10-04T09:30:05;13.00;;;5.90;;
58784;SDS011;44557;51.862;19.378;2022-10-04T09:32:39;10.90;;;5.40;;
58784;SDS011;44557;51.862;19.378;2022-10-04T09:34:37;9.60;;;5.30;;
58784;SDS011;44557;51.862;19.378;2022-10-04T09:40:52;9.70;;;4.80;;
58784;SDS011;44557;51.862;19.378;2022-10-04T09:49:29;9.00;;;4.40;;
58784;SDS011;44557;51.862;19.378;2022-10-04T09:57:28;7.00;;;3.70;;
58784;SDS011;44557;51.862;19.378;2022-10-04T09:58:45;8.90;;;4.60;;
58784;SDS011;44557;51.862;19.378;2022-10-04T10:02:43;7.50;;;3.40;;
58784;SDS011;44557;51.862;19.378;2022-10-04T10:08:23;6.40;;;3.20;;
58784;SDS011;44557;51.862;19.378;2022-10-04T10:09:50;8.60;;;3.00;;
58784;SDS011;44557;51.862;19.378;2022-10-04T10:16:19;6.20;;;2.90;;